sensor_id;sensor_type;location;lat;lon;timestamp;P1;durP1;ratioP1;P2;durP2;ratioP2
41167;SDS011;26906;45.658;9.272;2023-11-18T08:07:10;18.38;;;4.40;;
41167;SDS011;26906;45.658;9.272;2023-11-18T08:09:36;12.02;;;3.47;;
41167;SDS011;26906;45.658;9.272;2023-11-18T08:12:04;1.92;;;1.63;;
41167;SDS011;26906;45.658;9.272;2023-11-18T08:14:34;2.63;;;1.17;;
41167;SDS011;26906;45.658;9.272;2023-11-18T08:17:00;9.32;;;1.80;;
41167;SDS011;26906;45.658;9.272;2023-11-18T08:19:25;5.05;;;1.23;;
41167;SDS011;26906;45.658;9.272;2023-11-18T08:21:51;6.60;;;1.40;;
41167;SDS011;26906;45.658;9.272;2023-11-18T08:24:17;1.25;;;1.10;;
41167;SDS011;26906;45.658;9.272;2023-11-18T08:26:43;3.22;;;1.30;;
41167;SDS011;26906;45.658;9.272;2023-11-18T08:29:10;6.32;;;1.63;;
41167;SDS011;26906;45.658;9.272;2023-11-18T08:31:38;4.68;;;1.35;;
41167;SDS011;26906;45.658;9.272;2023-11-18T08:34:04;2.75;;;1.40;;
41167;SDS011;26906;45.658;9.272;2023-11-18T08:36:30;3.60;;;1.60;;
41167;SDS011;26906;45.658;9.272;2023-11-18T08:38:58;6.97;;;2.55;;
41167;SDS011;26906;45.658;9.272;2023-11-18T08:41:25;7.03;;;2.40;;
41167;SDS011;26906;45.658;9.272;2023-11-18T08:43:51;7.40;;;1.85;;
41167;SDS011;26906;45.658;9.272;2023-11-18T08:46:17;2.78;;;1.50;;
41167;SDS011;26906;45.658;9.272;2023-11-18T08:48:43;4.03;;;1.50;;
41167;SDS011;26906;45.658;9.272;2023-11-18T08:51:09;5.53;;;1.67;;
41167;SDS011;26906;45.658;9.272;2023-11-18T08:53:36;2.40;;;1.70;;
41167;SDS011;26906;45.658;9.272;2023-11-18T08:56:08;4.03;;;1.63;;
41167;SDS011;26906;45.658;9.272;2023-11-18T08:58:40;7.30;;;1.85;;
41167;SDS011;26906;45.658;9.272;2023-11-18T09:01:07;4.68;;;1.70;;
41167;SDS011;26906;45.658;9.272;2023-11-18T09:03:39;4.40;;;1.50;;
41167;SDS011;26906;45.658;9.272;2023-11-18T09:06:13;1.80;;;1.38;;
41167;SDS011;26906;45.658;9.272;2023-11-18T09:08:43;6.95;;;1.40;;
41167;SDS011;26906;45.658;9.272;2023-11-18T09:11:17;3.50;;;1.20;;
41167;SDS011;26906;45.658;9.272;2023-11-18T09:13:45;4.32;;;1.20;;
41167;SDS011;26906;45.658;9.272;2023-11-18T09:18:45;11.35;;;2.03;;
41167;SDS011;26906;45.658;9.272;2023-11-18T09:21:11;6.18;;;1.20;;
41167;SDS011;26906;45.658;9.272;2023-11-18T09:23:44;3.13;;;1.85;;
41167;SDS011;26906;45.658;9.272;2023-11-18T09:26:13;5.43;;;1.30;;
41167;SDS011;26906;45.658;9.272;2023-11-18T09:28:39;2.67;;;1.20;;
41167;SDS011;26906;45.658;9.272;2023-11-18T09:31:06;6.90;;;1.48;;
41167;SDS011;26906;45.658;9.272;2023-11-18T09:33:36;7.40;;;1.33;;
41167;SDS011;26906;45.658;9.272;2023-11-18T09:36:07;5.60;;;1.20;;
41167;SDS011;26906;45.658;9.272;2023-11-18T09:38:37;3.67;;;1.05;;
41167;SDS011;26906;45.658;9.272;2023-11-18T09:41:06;1.70;;;1.20;;
41167;SDS011;26906;45.658;9.272;2023-11-18T09:43:36;5.60;;;1.42;;
41167;SDS011;26906;45.658;9.272;2023-11-18T09:46:27;5.35;;;1.20;;
41167;SDS011;26906;45.658;9.272;2023-11-18T09:51:43;2.22;;;0.68;;
41167;SDS011;26906;45.658;9.272;2023-11-18T10:02:44;2.70;;;1.25;;
41167;SDS011;26906;45.658;9.272;2023-11-18T10:05:11;2.45;;;1.00;;
41167;SDS011;26906;45.658;9.272;2023-11-18T10:07:41;9.80;;;2.30;;
41167;SDS011;26906;45.658;9.272;2023-11-18T10:10:07;8.15;;;2.88;;
41167;SDS011;26906;45.658;9.272;2023-11-18T10:12:43;8.10;;;3.08;;
41167;SDS011;26906;45.658;9.272;2023-11-18T10:15:16;7.82;;;2.92;;
41167;SDS011;26906;45.658;9.272;2023-11-18T10:17:43;6.13;;;2.58;;
41167;SDS011;26906;45.658;9.272;2023-11-18T10:23:16;7.50;;;2.70;;
41167;SDS011;26906;45.658;9.272;2023-11-18T10:25:49;12.82;;;2.67;;
41167;SDS011;26906;45.658;9.272;2023-11-18T10:30:55;4.55;;;2.33;;
41167;SDS011;26906;45.658;9.272;2023-11-18T10:33:24;6.25;;;2.05;;
41167;SDS011;26906;45.658;9.272;2023-11-18T10:35:55;3.78;;;1.60;;
41167;SDS011;26906;45.658;9.272;2023-11-18T10:38:22;3.60;;;1.55;;
41167;SDS011;26906;45.658;9.272;2023-11-18T10:40:55;2.45;;;1.33;;
41167;SDS011;26906;45.658;9.272;2023-11-18T10:43:22;5.28;;;1.40;;
41167;SDS011;26906;45.658;9.272;2023-11-18T10:46:06;7.53;;;1.75;;
41167;SDS011;26906;45.658;9.272;2023-11-18T10:48:42;6.18;;;1.08;;
41167;SDS011;26906;45.658;9.272;2023-11-18T10:51:10;2.65;;;0.90;;
41167;SDS011;26906;45.658;9.272;2023-11-18T10:53:44;3.08;;;1.00;;
41167;SDS011;26906;45.658;9.272;2023-11-18T10:56:21;3.05;;;1.10;;
41167;SDS011;26906;45.658;9.272;2023-11-18T10:59:06;1.83;;;0.80;;
41167;SDS011;26906;45.658;9.272;2023-11-18T11:01:35;6.07;;;0.90;;
41167;SDS011;26906;45.658;9.272;2023-11-18T11:04:07;0.95;;;0.70;;
41167;SDS011;26906;45.658;9.272;2023-11-18T11:06:35;1.95;;;0.68;;
41167;SDS011;26906;45.658;9.272;2023-11-18T11:09:11;5.07;;;1.00;;
41167;SDS011;26906;45.658;9.272;2023-11-18T11:11:46;3.55;;;0.90;;
41167;SDS011;26906;45.658;9.272;2023-11-18T11:14:17;2.10;;;0.73;;
41167;SDS011;26906;45.658;9.272;2023-11-18T11:17:00;3.95;;;0.60;;
41167;SDS011;26906;45.658;9.272;2023-11-18T11:22:46;4.50;;;0.60;;
41167;SDS011;26906;45.658;9.272;2023-11-18T11:28:10;2.35;;;0.63;;
41167;SDS011;26906;45.658;9.272;2023-11-18T11:30:50;1.80;;;0.63;;
41167;SDS011;26906;45.658;9.272;2023-11-18T11:33:29;2.58;;;0.65;;
41167;SDS011;26906;45.658;9.272;2023-11-18T11:36:24;1.35;;;0.60;;
41167;SDS011;26906;45.658;9.272;2023-11-18T11:38:56;1.73;;;0.70;;
41167;SDS011;26906;45.658;9.272;2023-11-18T11:41:24;3.72;;;0.70;;
41167;SDS011;26906;45.658;9.272;2023-11-18T11:43:53;2.55;;;0.70;;
41167;SDS011;26906;45.658;9.272;2023-11-18T11:46:27;2.92;;;0.70;;
41167;SDS011;26906;45.658;9.272;2023-11-18T11:48:59;2.08;;;0.73;;
41167;SDS011;26906;45.658;9.272;2023-11-18T11:51:37;1.83;;;0.60;;
41167;SDS011;26906;45.658;9.272;2023-11-18T11:54:16;0.70;;;0.40;;
41167;SDS011;26906;45.658;9.272;2023-11-18T11:56:47;6.83;;;1.07;;
41167;SDS011;26906;45.658;9.272;2023-11-18T12:02:19;2.00;;;0.80;;
41167;SDS011;26906;45.658;9.272;2023-11-18T12:04:50;1.45;;;0.60;;
41167;SDS011;26906;45.658;9.272;2023-11-18T12:07:21;3.17;;;0.63;;
41167;SDS011;26906;45.658;9.272;2023-11-18T12:09:58;4.32;;;0.50;;
41167;SDS011;26906;45.658;9.272;2023-11-18T12:12:26;1.60;;;0.63;;
41167;SDS011;26906;45.658;9.272;2023-11-18T12:14:53;1.50;;;0.65;;
41167;SDS011;26906;45.658;9.272;2023-11-18T12:17:25;0.70;;;0.67;;
41167;SDS011;26906;45.658;9.272;2023-11-18T12:19:57;1.73;;;0.80;;
41167;SDS011;26906;45.658;9.272;2023-11-18T12:22:31;0.95;;;0.40;;
41167;SDS011;26906;45.658;9.272;2023-11-18T12:25:39;2.80;;;0.90;;
41167;SDS011;26906;45.658;9.272;2023-11-18T12:28:14;1.73;;;0.63;;
41167;SDS011;26906;45.658;9.272;2023-11-18T12:30:41;0.98;;;0.77;;
41167;SDS011;26906;45.658;9.272;2023-11-18T12:33:18;6.03;;;0.80;;
41167;SDS011;26906;45.658;9.272;2023-11-18T12:41:38;10.25;;;1.40;;
41167;SDS011;26906;45.658;9.272;2023-11-18T12:47:02;1.00;;;0.60;;
41167;SDS011;26906;45.658;9.272;2023-11-18T12:49:39;2.75;;;0.80;;
41167;SDS011;26906;45.658;9.272;2023-11-18T12:52:07;1.40;;;0.47;;
41167;SDS011;26906;45.658;9.272;2023-11-18T12:54:34;1.90;;;0.55;;
41167;SDS011;26906;45.658;9.272;2023-11-18T12:57:08;4.18;;;0.85;;
41167;SDS011;26906;45.658;9.272;2023-11-18T12:59:35;2.90;;;0.70;;
41167;SDS011;26906;45.658;9.272;2023-11-18T13:02:02;1.42;;;0.70;;
41167;SDS011;26906;45.658;9.272;2023-11-18T13:04:43;4.97;;;0.70;;
41167;SDS011;26906;45.658;9.272;2023-11-18T13:07:13;1.80;;;0.70;;
41167;SDS011;26906;45.658;9.272;2023-11-18T13:09:39;4.70;;;0.90;;
41167;SDS011;26906;45.658;9.272;2023-11-18T13:12:08;0.60;;;0.60;;
41167;SDS011;26906;45.658;9.272;2023-11-18T13:14:34;7.90;;;0.90;;
41167;SDS011;26906;45.658;9.272;2023-11-18T13:17:04;7.82;;;0.80;;
41167;SDS011;26906;45.658;9.272;2023-11-18T13:19:34;0.45;;;0.40;;
41167;SDS011;26906;45.658;9.272;2023-11-18T13:22:00;8.63;;;0.95;;
41167;SDS011;26906;45.658;9.272;2023-11-18T13:24:29;1.05;;;0.50;;
41167;SDS011;26906;45.658;9.272;2023-11-18T13:26:55;1.52;;;0.70;;
41167;SDS011;26906;45.658;9.272;2023-11-18T13:29:22;7.97;;;0.77;;
41167;SDS011;26906;45.658;9.272;2023-11-18T13:31:49;11.82;;;1.25;;
41167;SDS011;26906;45.658;9.272;2023-11-18T13:34:19;5.40;;;0.85;;
41167;SDS011;26906;45.658;9.272;2023-11-18T13:36:49;0.57;;;0.50;;
41167;SDS011;26906;45.658;9.272;2023-11-18T13:39:18;1.52;;;0.63;;
41167;SDS011;26906;45.658;9.272;2023-11-18T13:41:45;7.35;;;1.27;;
41167;SDS011;26906;45.658;9.272;2023-11-18T13:47:04;1.25;;;0.60;;
41167;SDS011;26906;45.658;9.272;2023-11-18T13:49:31;6.50;;;0.88;;
41167;SDS011;26906;45.658;9.272;2023-11-18T13:51:58;5.18;;;0.90;;
41167;SDS011;26906;45.658;9.272;2023-11-18T13:54:27;4.47;;;0.80;;
41167;SDS011;26906;45.658;9.272;2023-11-18T13:56:54;3.08;;;0.93;;
41167;SDS011;26906;45.658;9.272;2023-11-18T13:59:24;1.60;;;0.85;;
41167;SDS011;26906;45.658;9.272;2023-11-18T14:01:56;3.65;;;1.77;;
41167;SDS011;26906;45.658;9.272;2023-11-18T14:04:26;6.50;;;2.00;;
41167;SDS011;26906;45.658;9.272;2023-11-18T14:06:53;1.55;;;1.08;;
41167;SDS011;26906;45.658;9.272;2023-11-18T14:09:22;5.30;;;1.27;;
41167;SDS011;26906;45.658;9.272;2023-11-18T14:11:53;0.95;;;0.70;;
41167;SDS011;26906;45.658;9.272;2023-11-18T14:14:22;2.03;;;0.50;;
41167;SDS011;26906;45.658;9.272;2023-11-18T14:16:50;1.77;;;0.90;;
41167;SDS011;26906;45.658;9.272;2023-11-18T14:19:18;3.90;;;0.90;;
41167;SDS011;26906;45.658;9.272;2023-11-18T14:21:44;1.45;;;0.65;;
41167;SDS011;26906;45.658;9.272;2023-11-18T14:24:13;3.60;;;0.77;;
41167;SDS011;26906;45.658;9.272;2023-11-18T14:26:40;2.20;;;0.60;;
41167;SDS011;26906;45.658;9.272;2023-11-18T14:29:06;1.00;;;0.70;;
41167;SDS011;26906;45.658;9.272;2023-11-18T14:31:33;2.88;;;0.85;;
41167;SDS011;26906;45.658;9.272;2023-11-18T14:34:02;1.55;;;0.70;;
41167;SDS011;26906;45.658;9.272;2023-11-18T14:36:29;1.20;;;0.70;;
41167;SDS011;26906;45.658;9.272;2023-11-18T14:38:55;2.05;;;0.70;;
41167;SDS011;26906;45.658;9.272;2023-11-18T14:41:20;3.85;;;0.75;;
41167;SDS011;26906;45.658;9.272;2023-11-18T14:43:50;1.95;;;0.80;;
41167;SDS011;26906;45.658;9.272;2023-11-18T14:46:16;0.63;;;0.55;;
41167;SDS011;26906;45.658;9.272;2023-11-18T14:48:43;3.40;;;0.70;;
41167;SDS011;26906;45.658;9.272;2023-11-18T14:51:09;2.05;;;0.75;;
41167;SDS011;26906;45.658;9.272;2023-11-18T14:53:35;2.50;;;0.80;;
41167;SDS011;26906;45.658;9.272;2023-11-18T14:56:02;2.38;;;1.00;;
41167;SDS011;26906;45.658;9.272;2023-11-18T14:58:30;1.13;;;0.73;;
41167;SDS011;26906;45.658;9.272;2023-11-18T15:01:00;1.17;;;0.85;;
41167;SDS011;26906;45.658;9.272;2023-11-18T15:03:26;3.45;;;0.90;;
41167;SDS011;26906;45.658;9.272;2023-11-18T15:05:52;3.67;;;0.95;;
41167;SDS011;26906;45.658;9.272;2023-11-18T15:08:18;8.45;;;1.55;;
41167;SDS011;26906;45.658;9.272;2023-11-18T15:10:44;4.07;;;1.48;;
41167;SDS011;26906;45.658;9.272;2023-11-18T15:13:10;5.50;;;1.20;;
41167;SDS011;26906;45.658;9.272;2023-11-18T15:15:40;3.33;;;1.63;;
41167;SDS011;26906;45.658;9.272;2023-11-18T15:18:07;7.82;;;1.30;;
41167;SDS011;26906;45.658;9.272;2023-11-18T15:20:48;5.10;;;1.60;;
41167;SDS011;26906;45.658;9.272;2023-11-18T15:23:15;8.15;;;2.28;;
41167;SDS011;26906;45.658;9.272;2023-11-18T15:25:47;17.05;;;2.40;;
41167;SDS011;26906;45.658;9.272;2023-11-18T15:28:16;8.82;;;2.53;;
41167;SDS011;26906;45.658;9.272;2023-11-18T15:30:43;6.07;;;2.40;;
41167;SDS011;26906;45.658;9.272;2023-11-18T15:33:09;7.70;;;2.50;;
41167;SDS011;26906;45.658;9.272;2023-11-18T15:35:36;6.90;;;3.72;;
41167;SDS011;26906;45.658;9.272;2023-11-18T15:38:08;8.65;;;3.25;;
41167;SDS011;26906;45.658;9.272;2023-11-18T15:40:37;7.82;;;3.30;;
41167;SDS011;26906;45.658;9.272;2023-11-18T15:43:03;9.27;;;2.80;;
41167;SDS011;26906;45.658;9.272;2023-11-18T15:45:32;18.92;;;4.05;;
41167;SDS011;26906;45.658;9.272;2023-11-18T15:48:01;18.65;;;6.10;;
41167;SDS011;26906;45.658;9.272;2023-11-18T15:50:30;16.45;;;7.88;;
41167;SDS011;26906;45.658;9.272;2023-11-18T15:52:57;18.73;;;7.20;;
41167;SDS011;26906;45.658;9.272;2023-11-18T15:55:23;17.83;;;6.63;;
41167;SDS011;26906;45.658;9.272;2023-11-18T15:57:53;16.45;;;5.07;;
41167;SDS011;26906;45.658;9.272;2023-11-18T16:00:22;17.75;;;8.32;;
41167;SDS011;26906;45.658;9.272;2023-11-18T16:02:53;11.27;;;6.28;;
41167;SDS011;26906;45.658;9.272;2023-11-18T16:05:21;10.02;;;5.03;;
41167;SDS011;26906;45.658;9.272;2023-11-18T16:07:51;15.35;;;8.55;;
41167;SDS011;26906;45.658;9.272;2023-11-18T16:10:20;14.93;;;8.23;;
41167;SDS011;26906;45.658;9.272;2023-11-18T16:12:47;8.48;;;4.45;;
41167;SDS011;26906;45.658;9.272;2023-11-18T16:15:16;7.65;;;4.57;;
41167;SDS011;26906;45.658;9.272;2023-11-18T16:17:44;6.40;;;4.30;;
41167;SDS011;26906;45.658;9.272;2023-11-18T16:20:12;8.90;;;4.10;;
41167;SDS011;26906;45.658;9.272;2023-11-18T16:22:44;12.52;;;5.15;;
41167;SDS011;26906;45.658;9.272;2023-11-18T16:25:18;11.15;;;5.80;;
41167;SDS011;26906;45.658;9.272;2023-11-18T16:27:49;10.77;;;6.90;;
41167;SDS011;26906;45.658;9.272;2023-11-18T16:30:16;13.00;;;7.53;;
41167;SDS011;26906;45.658;9.272;2023-11-18T16:32:43;14.23;;;9.90;;
41167;SDS011;26906;45.658;9.272;2023-11-18T16:35:10;14.88;;;8.00;;
41167;SDS011;26906;45.658;9.272;2023-11-18T16:37:37;16.48;;;7.60;;
41167;SDS011;26906;45.658;9.272;2023-11-18T16:40:05;26.42;;;12.63;;
41167;SDS011;26906;45.658;9.272;2023-11-18T16:42:44;32.10;;;15.18;;
41167;SDS011;26906;45.658;9.272;2023-11-18T16:45:18;33.45;;;15.82;;
41167;SDS011;26906;45.658;9.272;2023-11-18T16:47:48;29.35;;;13.80;;
41167;SDS011;26906;45.658;9.272;2023-11-18T16:50:18;30.95;;;13.43;;
41167;SDS011;26906;45.658;9.272;2023-11-18T16:52:45;28.85;;;13.77;;
41167;SDS011;26906;45.658;9.272;2023-11-18T16:55:11;35.22;;;17.90;;
41167;SDS011;26906;45.658;9.272;2023-11-18T16:57:37;43.13;;;19.38;;
41167;SDS011;26906;45.658;9.272;2023-11-18T17:00:03;33.17;;;17.75;;
41167;SDS011;26906;45.658;9.272;2023-11-18T17:02:47;30.70;;;16.38;;
41167;SDS011;26906;45.658;9.272;2023-11-18T17:05:18;37.42;;;18.02;;
41167;SDS011;26906;45.658;9.272;2023-11-18T17:07:44;37.08;;;17.63;;
41167;SDS011;26906;45.658;9.272;2023-11-18T17:10:10;30.55;;;16.88;;
41167;SDS011;26906;45.658;9.272;2023-11-18T17:12:43;31.33;;;16.73;;
41167;SDS011;26906;45.658;9.272;2023-11-18T17:15:10;27.13;;;15.10;;
41167;SDS011;26906;45.658;9.272;2023-11-18T17:17:44;20.52;;;12.80;;
41167;SDS011;26906;45.658;9.272;2023-11-18T17:20:12;18.25;;;13.00;;
41167;SDS011;26906;45.658;9.272;2023-11-18T17:22:39;18.33;;;10.45;;
41167;SDS011;26906;45.658;9.272;2023-11-18T17:25:07;15.65;;;10.13;;
41167;SDS011;26906;45.658;9.272;2023-11-18T17:27:41;28.10;;;10.15;;
41167;SDS011;26906;45.658;9.272;2023-11-18T17:30:10;21.42;;;9.43;;
41167;SDS011;26906;45.658;9.272;2023-11-18T17:32:38;22.88;;;12.50;;
41167;SDS011;26906;45.658;9.272;2023-11-18T17:35:06;24.25;;;12.90;;
41167;SDS011;26906;45.658;9.272;2023-11-18T17:37:34;32.85;;;14.82;;
41167;SDS011;26906;45.658;9.272;2023-11-18T17:40:00;21.75;;;13.00;;
41167;SDS011;26906;45.658;9.272;2023-11-18T17:42:28;20.13;;;12.30;;
41167;SDS011;26906;45.658;9.272;2023-11-18T17:44:54;23.27;;;11.63;;
41167;SDS011;26906;45.658;9.272;2023-11-18T17:47:20;23.48;;;13.25;;
41167;SDS011;26906;45.658;9.272;2023-11-18T17:49:45;27.98;;;12.25;;
41167;SDS011;26906;45.658;9.272;2023-11-18T17:52:11;28.38;;;13.02;;
41167;SDS011;26906;45.658;9.272;2023-11-18T17:54:37;19.90;;;13.40;;
41167;SDS011;26906;45.658;9.272;2023-11-18T17:57:05;17.95;;;11.77;;
41167;SDS011;26906;45.658;9.272;2023-11-18T17:59:33;24.58;;;11.98;;
41167;SDS011;26906;45.658;9.272;2023-11-18T18:01:58;21.05;;;11.57;;
41167;SDS011;26906;45.658;9.272;2023-11-18T18:04:24;20.73;;;10.35;;
41167;SDS011;26906;45.658;9.272;2023-11-18T18:06:51;17.23;;;13.10;;
41167;SDS011;26906;45.658;9.272;2023-11-18T18:09:17;18.27;;;14.75;;
41167;SDS011;26906;45.658;9.272;2023-11-18T18:11:45;17.25;;;12.25;;
41167;SDS011;26906;45.658;9.272;2023-11-18T18:14:10;9.88;;;7.20;;
41167;SDS011;26906;45.658;9.272;2023-11-18T18:16:36;10.02;;;6.07;;
41167;SDS011;26906;45.658;9.272;2023-11-18T18:19:02;13.85;;;6.13;;
41167;SDS011;26906;45.658;9.272;2023-11-18T18:21:28;9.95;;;6.07;;
41167;SDS011;26906;45.658;9.272;2023-11-18T18:23:54;11.82;;;6.68;;
41167;SDS011;26906;45.658;9.272;2023-11-18T18:26:21;22.15;;;7.85;;
41167;SDS011;26906;45.658;9.272;2023-11-18T18:28:47;17.77;;;6.82;;
41167;SDS011;26906;45.658;9.272;2023-11-18T18:31:14;16.33;;;7.93;;
41167;SDS011;26906;45.658;9.272;2023-11-18T18:33:41;16.83;;;9.70;;
41167;SDS011;26906;45.658;9.272;2023-11-18T18:36:08;20.85;;;9.20;;
41167;SDS011;26906;45.658;9.272;2023-11-18T18:38:34;17.13;;;9.63;;
41167;SDS011;26906;45.658;9.272;2023-11-18T18:41:00;14.55;;;8.20;;
41167;SDS011;26906;45.658;9.272;2023-11-18T18:43:25;14.68;;;8.75;;
41167;SDS011;26906;45.658;9.272;2023-11-18T18:45:51;17.80;;;9.32;;
41167;SDS011;26906;45.658;9.272;2023-11-18T18:48:17;20.95;;;9.38;;
41167;SDS011;26906;45.658;9.272;2023-11-18T18:50:43;17.83;;;9.77;;
41167;SDS011;26906;45.658;9.272;2023-11-18T18:53:08;20.00;;;10.98;;
41167;SDS011;26906;45.658;9.272;2023-11-18T18:55:34;17.63;;;10.25;;
41167;SDS011;26906;45.658;9.272;2023-11-18T18:58:01;16.50;;;10.60;;
41167;SDS011;26906;45.658;9.272;2023-11-18T19:00:27;20.60;;;10.43;;
41167;SDS011;26906;45.658;9.272;2023-11-18T19:02:54;19.00;;;9.90;;
41167;SDS011;26906;45.658;9.272;2023-11-18T19:05:20;19.58;;;10.30;;
41167;SDS011;26906;45.658;9.272;2023-11-18T19:07:51;17.67;;;10.65;;
41167;SDS011;26906;45.658;9.272;2023-11-18T19:10:21;20.35;;;11.10;;
41167;SDS011;26906;45.658;9.272;2023-11-18T19:12:47;17.00;;;10.27;;
41167;SDS011;26906;45.658;9.272;2023-11-18T19:15:13;16.23;;;9.90;;
41167;SDS011;26906;45.658;9.272;2023-11-18T19:17:45;18.67;;;9.52;;
41167;SDS011;26906;45.658;9.272;2023-11-18T19:20:11;17.42;;;10.63;;
41167;SDS011;26906;45.658;9.272;2023-11-18T19:22:43;13.02;;;9.18;;
41167;SDS011;26906;45.658;9.272;2023-11-18T19:25:09;14.23;;;9.95;;
41167;SDS011;26906;45.658;9.272;2023-11-18T19:27:38;19.65;;;10.52;;
41167;SDS011;26906;45.658;9.272;2023-11-18T19:30:05;16.45;;;9.98;;
41167;SDS011;26906;45.658;9.272;2023-11-18T19:32:34;18.23;;;10.02;;
41167;SDS011;26906;45.658;9.272;2023-11-18T19:35:00;15.60;;;9.52;;
41167;SDS011;26906;45.658;9.272;2023-11-18T19:37:25;15.43;;;8.07;;
41167;SDS011;26906;45.658;9.272;2023-11-18T19:39:53;11.27;;;8.43;;
41167;SDS011;26906;45.658;9.272;2023-11-18T19:42:19;18.38;;;11.63;;
41167;SDS011;26906;45.658;9.272;2023-11-18T19:44:47;19.70;;;10.75;;
41167;SDS011;26906;45.658;9.272;2023-11-18T19:47:13;14.00;;;9.27;;
41167;SDS011;26906;45.658;9.272;2023-11-18T19:49:39;22.15;;;11.20;;
41167;SDS011;26906;45.658;9.272;2023-11-18T19:52:06;55.38;;;27.10;;
41167;SDS011;26906;45.658;9.272;2023-11-18T19:54:32;35.25;;;19.42;;
41167;SDS011;26906;45.658;9.272;2023-11-18T19:56:58;62.83;;;33.00;;
41167;SDS011;26906;45.658;9.272;2023-11-18T19:59:24;35.00;;;17.98;;
41167;SDS011;26906;45.658;9.272;2023-11-18T20:01:50;25.38;;;14.98;;
41167;SDS011;26906;45.658;9.272;2023-11-18T20:04:23;13.50;;;8.73;;
41167;SDS011;26906;45.658;9.272;2023-11-18T20:06:50;13.07;;;9.68;;
41167;SDS011;26906;45.658;9.272;2023-11-18T20:09:16;11.25;;;7.63;;
41167;SDS011;26906;45.658;9.272;2023-11-18T20:11:48;12.18;;;7.95;;
41167;SDS011;26906;45.658;9.272;2023-11-18T20:14:14;19.33;;;11.82;;
41167;SDS011;26906;45.658;9.272;2023-11-18T20:16:40;19.38;;;11.50;;
41167;SDS011;26906;45.658;9.272;2023-11-18T20:19:06;19.88;;;10.75;;
41167;SDS011;26906;45.658;9.272;2023-11-18T20:21:32;17.90;;;10.73;;
41167;SDS011;26906;45.658;9.272;2023-11-18T20:23:58;17.90;;;9.70;;
41167;SDS011;26906;45.658;9.272;2023-11-18T20:26:24;16.20;;;8.85;;
41167;SDS011;26906;45.658;9.272;2023-11-18T20:28:49;13.07;;;7.78;;
41167;SDS011;26906;45.658;9.272;2023-11-18T20:31:15;33.25;;;18.13;;
41167;SDS011;26906;45.658;9.272;2023-11-18T20:33:40;76.80;;;40.60;;
41167;SDS011;26906;45.658;9.272;2023-11-18T20:36:06;41.80;;;23.38;;
41167;SDS011;26906;45.658;9.272;2023-11-18T20:38:33;62.60;;;35.58;;
41167;SDS011;26906;45.658;9.272;2023-11-18T20:40:59;48.13;;;25.63;;
41167;SDS011;26906;45.658;9.272;2023-11-18T20:43:25;36.10;;;19.52;;
41167;SDS011;26906;45.658;9.272;2023-11-18T20:45:51;23.52;;;14.23;;
41167;SDS011;26906;45.658;9.272;2023-11-18T20:48:17;26.92;;;15.50;;
41167;SDS011;26906;45.658;9.272;2023-11-18T20:50:43;28.50;;;17.65;;
41167;SDS011;26906;45.658;9.272;2023-11-18T20:53:15;30.17;;;15.93;;
41167;SDS011;26906;45.658;9.272;2023-11-18T20:55:41;19.45;;;13.70;;
41167;SDS011;26906;45.658;9.272;2023-11-18T20:58:07;17.23;;;12.77;;
41167;SDS011;26906;45.658;9.272;2023-11-18T21:00:33;21.02;;;13.70;;
41167;SDS011;26906;45.658;9.272;2023-11-18T21:03:01;21.50;;;13.00;;
41167;SDS011;26906;45.658;9.272;2023-11-18T21:05:28;22.60;;;13.48;;
41167;SDS011;26906;45.658;9.272;2023-11-18T21:07:54;20.02;;;11.07;;
41167;SDS011;26906;45.658;9.272;2023-11-18T21:10:22;24.10;;;11.73;;
41167;SDS011;26906;45.658;9.272;2023-11-18T21:12:48;17.65;;;12.23;;
41167;SDS011;26906;45.658;9.272;2023-11-18T21:15:13;19.65;;;14.63;;
41167;SDS011;26906;45.658;9.272;2023-11-18T21:17:40;21.80;;;15.05;;
41167;SDS011;26906;45.658;9.272;2023-11-18T21:20:06;23.23;;;12.60;;
41167;SDS011;26906;45.658;9.272;2023-11-18T21:22:38;27.85;;;16.27;;
41167;SDS011;26906;45.658;9.272;2023-11-18T21:25:07;23.38;;;14.13;;
41167;SDS011;26906;45.658;9.272;2023-11-18T21:27:37;20.67;;;12.00;;
41167;SDS011;26906;45.658;9.272;2023-11-18T21:30:04;18.23;;;11.88;;
41167;SDS011;26906;45.658;9.272;2023-11-18T21:32:30;18.13;;;10.77;;
41167;SDS011;26906;45.658;9.272;2023-11-18T21:34:55;15.50;;;10.20;;
